createdAt,value
2019-04-30T00:00:38.329Z,996.24
2019-04-30T00:01:36.237Z,996.20
2019-04-30T00:02:39.907Z,996.19
2019-04-30T00:03:35.686Z,996.23
2019-04-30T00:04:40.207Z,996.26
2019-04-30T00:05:35.960Z,996.29
2019-04-30T00:06:39.419Z,996.25
2019-04-30T00:07:38.227Z,996.22
2019-04-30T00:08:39.056Z,996.22
2019-04-30T00:09:36.645Z,996.17
2019-04-30T00:10:41.127Z,996.14
2019-04-30T00:11:36.857Z,996.15
2019-04-30T00:12:39.502Z,996.10
2019-04-30T00:13:37.264Z,996.13
2019-04-30T00:14:41.133Z,996.19
2019-04-30T00:15:37.723Z,996.15
2019-04-30T00:16:39.885Z,996.14
2019-04-30T00:17:37.922Z,996.15
2019-04-30T00:18:39.659Z,996.16
2019-04-30T00:19:38.366Z,996.19
2019-04-30T00:20:38.759Z,996.17
2019-04-30T00:21:38.676Z,996.12
2019-04-30T00:22:46.535Z,996.15
2019-04-30T00:23:38.980Z,996.12
2019-04-30T00:24:39.870Z,996.12
2019-04-30T00:25:39.314Z,996.13
2019-04-30T00:26:39.871Z,996.08
2019-04-30T00:27:39.679Z,996.08
2019-04-30T00:28:46.265Z,996.07
2019-04-30T00:29:39.964Z,996.11
2019-04-30T00:30:43.955Z,996.10
2019-04-30T00:31:40.412Z,996.12
2019-04-30T00:32:43.776Z,996.11
2019-04-30T00:33:40.619Z,996.09
2019-04-30T00:34:40.842Z,996.10
2019-04-30T00:35:40.924Z,996.11
2019-04-30T00:36:41.152Z,996.11
2019-04-30T00:37:41.243Z,996.11
2019-04-30T00:38:41.443Z,996.08
2019-04-30T00:39:44.323Z,996.11
2019-04-30T00:40:41.814Z,996.07
2019-04-30T00:41:45.917Z,996.12
2019-04-30T00:42:42.134Z,996.06
2019-04-30T00:43:47.046Z,996.08
2019-04-30T00:44:42.431Z,996.07
2019-04-30T00:45:44.875Z,996.08
2019-04-30T00:46:42.757Z,996.09
2019-04-30T00:47:44.517Z,996.07
2019-04-30T00:48:43.218Z,996.09
2019-04-30T00:49:44.858Z,996.05
2019-04-30T00:50:43.370Z,996.04
2019-04-30T00:51:45.284Z,996.08
2019-04-30T00:52:45.660Z,996.07
2019-04-30T00:53:51.051Z,996.08
2019-04-30T00:54:45.246Z,996.14
2019-04-30T00:55:48.267Z,996.15
2019-04-30T00:56:45.576Z,996.16
2019-04-30T00:57:47.425Z,996.15
2019-04-30T00:58:45.265Z,996.17
2019-04-30T00:59:47.998Z,996.16
2019-04-30T01:00:45.498Z,996.14
2019-04-30T01:01:48.077Z,996.14
2019-04-30T01:02:45.605Z,996.16
2019-04-30T01:03:49.365Z,996.11
2019-04-30T01:04:45.609Z,996.10
2019-04-30T01:05:47.930Z,996.13
2019-04-30T01:06:46.209Z,996.10
2019-04-30T01:07:50.796Z,996.09
2019-04-30T01:08:46.252Z,996.06
2019-04-30T01:09:49.424Z,996.12
2019-04-30T01:10:46.369Z,996.07
2019-04-30T01:11:48.098Z,996.07
2019-04-30T01:12:49.609Z,996.08
2019-04-30T01:13:51.028Z,996.10
2019-04-30T01:14:47.028Z,996.06
2019-04-30T01:15:49.015Z,996.06
2019-04-30T01:16:49.239Z,996.06
2019-04-30T01:17:51.030Z,996.04
2019-04-30T01:18:49.145Z,996.03
2019-04-30T01:19:51.111Z,996.04
2019-04-30T01:20:48.776Z,996.05
2019-04-30T01:21:49.168Z,996.02
2019-04-30T01:22:48.738Z,996.01
2019-04-30T01:23:54.606Z,996.03
2019-04-30T01:24:49.706Z,996.02
2019-04-30T01:25:51.338Z,996.03
2019-04-30T01:26:50.514Z,995.98
2019-04-30T01:27:49.212Z,995.97
2019-04-30T01:28:49.479Z,995.97
2019-04-30T01:29:49.558Z,995.97
2019-04-30T01:30:53.778Z,995.93
2019-04-30T01:31:49.899Z,995.93
2019-04-30T01:32:56.471Z,995.95
2019-04-30T01:33:50.211Z,995.87
2019-04-30T01:34:53.877Z,995.95
2019-04-30T01:35:50.564Z,995.93
2019-04-30T01:36:52.234Z,995.93
2019-04-30T01:37:50.913Z,995.93
2019-04-30T01:38:52.426Z,995.94
2019-04-30T01:39:51.275Z,995.93
2019-04-30T01:40:51.369Z,995.93
2019-04-30T01:41:51.533Z,995.89
2019-04-30T01:42:51.962Z,995.92
2019-04-30T01:43:51.862Z,995.88
2019-04-30T01:44:53.872Z,995.92
2019-04-30T01:45:52.186Z,995.86
2019-04-30T01:46:52.401Z,995.88
2019-04-30T01:47:52.477Z,995.90
2019-04-30T01:48:52.643Z,995.86
2019-04-30T01:49:55.910Z,995.88
2019-04-30T01:50:52.958Z,995.87
2019-04-30T01:51:57.213Z,995.87
2019-04-30T01:52:53.323Z,995.92
2019-04-30T01:53:53.511Z,995.89
2019-04-30T01:54:53.694Z,995.89
2019-04-30T01:55:53.881Z,995.89
2019-04-30T01:56:54.068Z,995.88
2019-04-30T01:57:54.247Z,995.89
2019-04-30T01:58:54.399Z,995.89
2019-04-30T01:59:54.571Z,995.87
2019-04-30T02:00:54.757Z,995.86
2019-04-30T02:01:54.941Z,995.85
2019-04-30T02:02:55.103Z,995.89
2019-04-30T02:03:55.263Z,995.86
2019-04-30T02:04:55.435Z,995.87
2019-04-30T02:05:55.635Z,995.85
2019-04-30T02:06:55.815Z,995.86
2019-04-30T02:07:55.983Z,995.85
2019-04-30T02:08:56.148Z,995.86
2019-04-30T02:09:56.316Z,995.86
2019-04-30T02:10:56.474Z,995.86
2019-04-30T02:11:56.638Z,995.85
2019-04-30T02:12:56.803Z,995.83
2019-04-30T02:13:58.978Z,995.84
2019-04-30T02:14:57.133Z,995.79
2019-04-30T02:15:59.103Z,995.78
2019-04-30T02:16:59.018Z,995.85
2019-04-30T02:17:58.774Z,995.84
2019-04-30T02:18:59.502Z,995.86
2019-04-30T02:19:59.354Z,995.85
2019-04-30T02:20:59.475Z,995.86
2019-04-30T02:21:58.595Z,995.87
2019-04-30T02:22:58.830Z,995.88
2019-04-30T02:23:58.967Z,995.85
2019-04-30T02:24:58.836Z,995.90
2019-04-30T02:25:59.073Z,995.87
2019-04-30T02:26:59.487Z,995.91
2019-04-30T02:27:59.365Z,995.88
2019-04-30T02:28:59.525Z,995.85
2019-04-30T02:30:02.732Z,995.86
2019-04-30T02:31:00.565Z,995.85
2019-04-30T02:32:00.641Z,995.91
2019-04-30T02:33:00.847Z,995.87
2019-04-30T02:34:00.591Z,995.86
2019-04-30T02:35:00.543Z,995.84
2019-04-30T02:36:03.812Z,995.84
2019-04-30T02:37:00.885Z,995.86
2019-04-30T02:38:01.051Z,995.83
2019-04-30T02:39:02.750Z,995.82
2019-04-30T02:40:01.373Z,995.82
2019-04-30T02:41:01.538Z,995.80
2019-04-30T02:42:01.706Z,995.79
2019-04-30T02:43:02.086Z,995.81
2019-04-30T02:44:02.065Z,995.82
2019-04-30T02:45:03.735Z,995.80
2019-04-30T02:46:02.400Z,995.78
2019-04-30T02:47:02.574Z,995.79
2019-04-30T02:48:02.749Z,995.80
2019-04-30T02:49:02.911Z,995.78
2019-04-30T02:50:14.272Z,995.79
2019-04-30T02:51:03.251Z,995.75
2019-04-30T02:52:03.428Z,995.79
2019-04-30T02:53:03.604Z,995.75
2019-04-30T02:54:03.778Z,995.77
2019-04-30T02:55:03.986Z,995.80
2019-04-30T02:56:04.119Z,995.83
2019-04-30T02:57:04.325Z,995.80
2019-04-30T02:58:04.383Z,995.79
2019-04-30T02:59:04.547Z,995.80
2019-04-30T03:00:04.709Z,995.77
2019-04-30T03:01:04.905Z,995.81
2019-04-30T03:02:05.030Z,995.78
2019-04-30T03:03:05.214Z,995.78
2019-04-30T03:04:05.360Z,995.78
2019-04-30T03:05:05.542Z,995.76
2019-04-30T03:06:05.709Z,995.74
2019-04-30T03:07:05.899Z,995.70
2019-04-30T03:08:06.053Z,995.68
2019-04-30T03:09:06.230Z,995.73
2019-04-30T03:10:06.384Z,995.67
2019-04-30T03:11:06.551Z,995.67
2019-04-30T03:12:08.651Z,995.68
2019-04-30T03:13:06.901Z,995.65
2019-04-30T03:14:07.080Z,995.64
2019-04-30T03:15:09.728Z,995.59
2019-04-30T03:16:09.395Z,995.62
2019-04-30T03:17:10.013Z,995.62
2019-04-30T03:18:09.881Z,995.66
2019-04-30T03:19:09.891Z,995.63
2019-04-30T03:20:10.624Z,995.63
2019-04-30T03:21:09.768Z,995.60
2019-04-30T03:22:10.145Z,995.66
2019-04-30T03:23:09.885Z,995.59
2019-04-30T03:24:10.787Z,995.61
2019-04-30T03:25:09.479Z,995.63
2019-04-30T03:26:09.651Z,995.61
2019-04-30T03:27:09.953Z,995.59
2019-04-30T03:28:09.859Z,995.64
2019-04-30T03:29:11.550Z,995.62
2019-04-30T03:30:11.825Z,995.55
2019-04-30T03:31:12.542Z,995.60
2019-04-30T03:32:13.349Z,995.62
2019-04-30T03:33:12.721Z,995.60
2019-04-30T03:34:16.571Z,995.59
2019-04-30T03:35:12.842Z,995.61
2019-04-30T03:36:12.476Z,995.58
2019-04-30T03:37:10.821Z,995.60
2019-04-30T03:38:10.969Z,995.63
2019-04-30T03:39:11.429Z,995.62
2019-04-30T03:40:13.171Z,995.67
2019-04-30T03:41:11.489Z,995.63
2019-04-30T03:42:11.659Z,995.66
2019-04-30T03:43:11.834Z,995.63
2019-04-30T03:44:21.376Z,995.63
2019-04-30T03:45:12.313Z,995.62
2019-04-30T03:46:12.235Z,995.63
2019-04-30T03:47:12.411Z,995.68
2019-04-30T03:48:12.567Z,995.68
2019-04-30T03:49:13.511Z,995.67
2019-04-30T03:50:12.964Z,995.66
2019-04-30T03:51:14.042Z,995.68
2019-04-30T03:52:13.657Z,995.70
2019-04-30T03:53:14.093Z,995.73
2019-04-30T03:54:13.465Z,995.76
2019-04-30T03:55:13.635Z,995.70
2019-04-30T03:56:13.806Z,995.75
2019-04-30T03:57:13.984Z,995.77
2019-04-30T03:58:14.194Z,995.78
2019-04-30T03:59:14.373Z,995.75
2019-04-30T04:00:14.538Z,995.78
2019-04-30T04:01:14.701Z,995.77
2019-04-30T04:02:20.575Z,995.76
2019-04-30T04:03:15.224Z,995.75
2019-04-30T04:04:15.244Z,995.74
2019-04-30T04:05:15.419Z,995.72
2019-04-30T04:06:15.580Z,995.74
2019-04-30T04:07:15.742Z,995.73
2019-04-30T04:08:15.899Z,995.68
2019-04-30T04:09:16.065Z,995.75
2019-04-30T04:10:16.303Z,995.78
2019-04-30T04:11:16.348Z,995.78
2019-04-30T04:12:16.508Z,995.80
2019-04-30T04:13:16.681Z,995.83
2019-04-30T04:14:19.591Z,995.89
2019-04-30T04:15:16.977Z,995.86
2019-04-30T04:16:19.488Z,995.92
2019-04-30T04:17:20.091Z,995.93
2019-04-30T04:18:20.012Z,995.88
2019-04-30T04:19:19.637Z,995.88
2019-04-30T04:20:20.060Z,995.89
2019-04-30T04:21:20.466Z,995.89
2019-04-30T04:22:20.574Z,995.87
2019-04-30T04:23:19.283Z,995.87
2019-04-30T04:24:20.337Z,995.90
2019-04-30T04:25:20.361Z,995.92
2019-04-30T04:26:20.219Z,995.92
2019-04-30T04:27:19.476Z,995.90
2019-04-30T04:28:20.257Z,995.90
2019-04-30T04:29:19.775Z,995.93
2019-04-30T04:30:20.341Z,995.91
2019-04-30T04:31:19.689Z,995.94
2019-04-30T04:32:23.568Z,995.87
2019-04-30T04:33:22.851Z,995.91
2019-04-30T04:34:21.499Z,995.92
2019-04-30T04:35:21.224Z,995.90
2019-04-30T04:36:22.690Z,995.96
2019-04-30T04:37:22.313Z,995.96
2019-04-30T04:38:21.562Z,995.95
2019-04-30T04:39:22.587Z,995.94
2019-04-30T04:40:22.788Z,995.99
2019-04-30T04:41:23.007Z,995.98
2019-04-30T04:42:23.719Z,995.98
2019-04-30T04:43:23.344Z,995.99
2019-04-30T04:44:22.037Z,995.98
2019-04-30T04:45:23.664Z,996.00
2019-04-30T04:46:22.750Z,996.07
2019-04-30T04:47:22.832Z,996.07
2019-04-30T04:48:23.549Z,996.04
2019-04-30T04:49:22.465Z,996.09
2019-04-30T04:50:23.575Z,996.07
2019-04-30T04:51:34.363Z,996.05
2019-04-30T04:52:23.579Z,996.03
2019-04-30T04:53:23.069Z,996.06
2019-04-30T04:54:23.241Z,996.08
2019-04-30T04:55:25.468Z,996.05
2019-04-30T04:56:25.577Z,996.05
2019-04-30T04:57:24.648Z,996.06
2019-04-30T04:58:26.765Z,996.04
2019-04-30T04:59:25.821Z,996.04
2019-04-30T05:00:29.292Z,996.05
2019-04-30T05:01:26.037Z,996.07
2019-04-30T05:02:26.056Z,996.08
2019-04-30T05:03:26.352Z,996.09
2019-04-30T05:04:29.749Z,996.08
2019-04-30T05:05:25.728Z,996.09
2019-04-30T05:06:26.757Z,996.09
2019-04-30T05:07:28.501Z,996.11
2019-04-30T05:08:26.223Z,996.10
2019-04-30T05:09:28.621Z,996.11
2019-04-30T05:10:26.971Z,996.13
2019-04-30T05:11:29.303Z,996.15
2019-04-30T05:12:26.670Z,996.15
2019-04-30T05:13:29.079Z,996.13
2019-04-30T05:14:28.798Z,996.18
2019-04-30T05:15:29.352Z,996.18
2019-04-30T05:16:28.927Z,996.17
2019-04-30T05:17:27.003Z,996.16
2019-04-30T05:18:28.988Z,996.16
2019-04-30T05:19:28.608Z,996.19
2019-04-30T05:20:29.164Z,996.23
2019-04-30T05:21:39.661Z,996.22
2019-04-30T05:22:29.362Z,996.23
2019-04-30T05:23:29.904Z,996.21
2019-04-30T05:24:28.681Z,996.23
2019-04-30T05:25:29.661Z,996.28
2019-04-30T05:26:28.760Z,996.26
2019-04-30T05:27:30.292Z,996.31
2019-04-30T05:28:30.116Z,996.32
2019-04-30T05:29:29.061Z,996.29
2019-04-30T05:30:29.595Z,996.28
2019-04-30T05:31:29.416Z,996.32
2019-04-30T05:32:29.577Z,996.33
2019-04-30T05:33:29.752Z,996.36
2019-04-30T05:34:29.927Z,996.37
2019-04-30T05:35:31.054Z,996.35
2019-04-30T05:36:30.288Z,996.36
2019-04-30T05:37:30.460Z,996.33
2019-04-30T05:38:31.909Z,996.35
2019-04-30T05:39:32.127Z,996.34
2019-04-30T05:40:33.485Z,996.35
2019-04-30T05:41:31.163Z,996.35
2019-04-30T05:42:31.328Z,996.36
2019-04-30T05:43:31.481Z,996.32
2019-04-30T05:44:31.670Z,996.36
2019-04-30T05:45:33.724Z,996.37
2019-04-30T05:46:32.005Z,996.39
2019-04-30T05:47:32.158Z,996.39
2019-04-30T05:48:32.335Z,996.42
2019-04-30T05:49:32.500Z,996.35
2019-04-30T05:50:32.664Z,996.37
2019-04-30T05:51:32.849Z,996.36
2019-04-30T05:52:32.998Z,996.35
2019-04-30T05:53:33.168Z,996.36
2019-04-30T05:54:33.331Z,996.40
2019-04-30T05:55:33.498Z,996.41
2019-04-30T05:56:33.681Z,996.45
2019-04-30T05:57:33.852Z,996.46
2019-04-30T05:58:34.017Z,996.43
2019-04-30T05:59:34.187Z,996.46
2019-04-30T06:00:34.367Z,996.42
2019-04-30T06:01:34.535Z,996.43
2019-04-30T06:02:34.709Z,996.41
2019-04-30T06:03:34.897Z,996.41
2019-04-30T06:04:35.065Z,996.44
2019-04-30T06:05:35.278Z,996.38
2019-04-30T06:06:35.433Z,996.43
2019-04-30T06:07:35.600Z,996.41
2019-04-30T06:08:35.815Z,996.43
2019-04-30T06:09:35.953Z,996.41
2019-04-30T06:10:36.125Z,996.42
2019-04-30T06:13:28.712Z,996.40
2019-04-30T06:14:08.741Z,996.41
2019-04-30T06:15:09.004Z,996.43
2019-04-30T06:16:09.193Z,996.39
2019-04-30T06:17:09.719Z,996.37
2019-04-30T06:18:13.521Z,996.40
2019-04-30T06:19:09.386Z,996.41
2019-04-30T06:20:17.789Z,996.42
2019-04-30T06:21:09.996Z,996.42
2019-04-30T06:22:10.998Z,996.41
2019-04-30T06:23:10.164Z,996.44
2019-04-30T06:24:11.692Z,996.47
2019-04-30T06:25:11.016Z,996.47
2019-04-30T06:26:13.236Z,996.48
2019-04-30T06:27:11.121Z,996.46
2019-04-30T06:28:10.919Z,996.48
2019-04-30T06:29:11.076Z,996.49
2019-04-30T06:30:12.136Z,996.51
2019-04-30T06:31:11.390Z,996.53
2019-04-30T06:32:11.605Z,996.51
2019-04-30T06:33:11.939Z,996.49
2019-04-30T06:34:11.888Z,996.51
2019-04-30T06:35:12.229Z,996.50
2019-04-30T06:36:12.175Z,996.52
2019-04-30T06:37:12.398Z,996.55
2019-04-30T06:38:12.883Z,996.53
2019-04-30T06:39:12.959Z,996.59
2019-04-30T06:40:12.995Z,996.57
2019-04-30T06:41:13.247Z,996.56
2019-04-30T06:42:13.391Z,996.60
2019-04-30T06:43:13.658Z,996.58
2019-04-30T06:44:14.067Z,996.56
2019-04-30T06:45:13.909Z,996.57
2019-04-30T06:46:13.987Z,996.57
2019-04-30T06:47:14.171Z,996.58
2019-04-30T06:48:15.741Z,996.59
2019-04-30T06:49:19.412Z,996.59
2019-04-30T06:50:19.222Z,996.58
2019-04-30T06:51:15.785Z,996.54
2019-04-30T06:52:20.776Z,996.58
2019-04-30T06:53:19.187Z,996.58
2019-04-30T06:54:19.199Z,996.60
2019-04-30T06:55:19.500Z,996.63
2019-04-30T06:56:18.962Z,996.62
2019-04-30T06:57:15.660Z,996.66
2019-04-30T06:58:20.536Z,996.67
2019-04-30T06:59:17.867Z,996.63
2019-04-30T07:00:19.445Z,996.68
2019-04-30T07:01:19.053Z,996.68
2019-04-30T07:02:19.708Z,996.67
2019-04-30T07:03:19.259Z,996.71
2019-04-30T07:04:19.427Z,996.75
2019-04-30T07:05:19.031Z,996.73
2019-04-30T07:06:29.140Z,996.73
2019-04-30T07:07:21.375Z,996.73
2019-04-30T07:08:19.009Z,996.76
2019-04-30T07:09:19.696Z,996.75
2019-04-30T07:10:20.412Z,996.77
2019-04-30T07:11:20.533Z,996.78
2019-04-30T07:12:27.217Z,996.73
2019-04-30T07:13:19.713Z,996.70
2019-04-30T07:14:19.566Z,996.73
2019-04-30T07:15:19.666Z,996.74
2019-04-30T07:16:19.095Z,996.75
2019-04-30T07:17:19.521Z,996.74
2019-04-30T07:18:19.794Z,996.71
2019-04-30T07:19:32.079Z,996.74
2019-04-30T07:20:20.462Z,996.71
2019-04-30T07:21:20.047Z,996.72
2019-04-30T07:22:36.225Z,996.72
2019-04-30T07:23:20.135Z,996.77
2019-04-30T07:24:21.044Z,996.74
2019-04-30T07:25:20.488Z,996.78
2019-04-30T07:26:24.399Z,996.82
2019-04-30T07:27:24.125Z,996.82
2019-04-30T07:28:21.201Z,996.79
2019-04-30T07:29:22.272Z,996.80
2019-04-30T07:30:21.769Z,996.80
2019-04-30T07:31:22.045Z,996.82
2019-04-30T07:32:23.097Z,996.82
2019-04-30T07:33:22.553Z,996.84
2019-04-30T07:34:22.591Z,996.82
2019-04-30T07:35:23.747Z,996.77
2019-04-30T07:36:23.023Z,996.87
2019-04-30T07:37:24.640Z,996.85
2019-04-30T07:38:23.384Z,996.87
2019-04-30T07:39:28.710Z,996.87
2019-04-30T07:40:23.283Z,996.83
2019-04-30T07:41:23.743Z,996.85
2019-04-30T07:42:24.844Z,996.83
2019-04-30T07:43:25.366Z,996.85
2019-04-30T07:44:33.731Z,996.90
2019-04-30T07:45:25.725Z,996.85
2019-04-30T07:46:24.348Z,996.87
2019-04-30T07:47:25.952Z,996.85
2019-04-30T07:48:26.551Z,996.91
2019-04-30T07:49:44.272Z,996.88
2019-04-30T07:50:26.860Z,996.87
2019-04-30T07:51:25.673Z,996.86
2019-04-30T07:52:25.887Z,996.87
2019-04-30T07:53:25.349Z,996.87
2019-04-30T07:54:25.534Z,996.90
2019-04-30T07:55:25.813Z,996.86
2019-04-30T07:56:29.295Z,996.89
2019-04-30T07:57:26.265Z,996.90
2019-04-30T07:58:26.276Z,996.92
2019-04-30T07:59:26.456Z,996.96
2019-04-30T08:00:26.689Z,996.94
2019-04-30T08:01:29.023Z,996.92
2019-04-30T08:02:27.098Z,996.92
2019-04-30T08:03:29.994Z,996.94
2019-04-30T08:04:29.255Z,996.95
2019-04-30T08:05:29.737Z,996.93
2019-04-30T08:06:30.656Z,996.96
2019-04-30T08:07:29.835Z,996.95
2019-04-30T08:08:30.047Z,996.97
2019-04-30T08:09:38.640Z,997.03
2019-04-30T08:10:29.717Z,997.02
2019-04-30T08:11:29.293Z,997.01
2019-04-30T08:12:31.970Z,997.03
2019-04-30T08:13:32.459Z,997.02
2019-04-30T08:14:29.382Z,996.99
2019-04-30T08:15:29.617Z,996.99
2019-04-30T08:16:29.736Z,996.99
2019-04-30T08:17:29.845Z,997.06
2019-04-30T08:18:30.044Z,997.06
2019-04-30T08:19:30.279Z,997.08
2019-04-30T08:20:30.386Z,997.00
2019-04-30T08:21:30.621Z,996.97
2019-04-30T08:22:30.678Z,997.05
2019-04-30T08:23:35.766Z,997.06
2019-04-30T08:24:31.141Z,997.09
2019-04-30T08:25:31.245Z,997.06
2019-04-30T08:26:31.466Z,997.07
2019-04-30T08:27:31.901Z,997.10
2019-04-30T08:28:31.794Z,997.11
2019-04-30T08:29:32.008Z,997.16
2019-04-30T08:30:32.533Z,997.25
2019-04-30T08:31:32.380Z,997.52
2019-04-30T08:32:32.595Z,997.75
2019-04-30T08:33:32.921Z,997.89
2019-04-30T08:34:33.164Z,997.88
2019-04-30T08:35:33.121Z,997.87
2019-04-30T08:36:33.427Z,997.85
2019-04-30T08:37:33.518Z,997.90
2019-04-30T08:38:33.749Z,997.90
2019-04-30T08:39:33.845Z,997.89
2019-04-30T08:40:34.114Z,997.96
2019-04-30T08:41:34.212Z,997.94
2019-04-30T08:42:37.599Z,997.95
2019-04-30T08:43:34.533Z,997.74
2019-04-30T08:44:34.723Z,997.39
2019-04-30T08:45:34.985Z,997.35
2019-04-30T08:46:35.116Z,997.28
2019-04-30T08:47:35.467Z,997.29
2019-04-30T08:48:46.139Z,997.24
2019-04-30T08:49:35.947Z,997.33
2019-04-30T08:50:35.985Z,997.31
2019-04-30T08:51:36.141Z,997.32
2019-04-30T08:52:36.312Z,997.33
2019-04-30T08:53:36.410Z,997.34
2019-04-30T08:54:36.659Z,997.37
2019-04-30T08:55:37.245Z,997.35
2019-04-30T08:56:38.710Z,997.33
2019-04-30T08:57:37.080Z,997.32
2019-04-30T08:58:39.093Z,997.36
2019-04-30T08:59:39.377Z,997.37
2019-04-30T09:00:38.522Z,997.34
2019-04-30T09:01:38.697Z,997.33
2019-04-30T09:02:39.821Z,997.32
2019-04-30T09:03:40.632Z,997.34
2019-04-30T09:04:38.885Z,997.31
2019-04-30T09:05:39.680Z,997.28
2019-04-30T09:06:40.357Z,997.26
2019-04-30T09:07:40.879Z,997.22
2019-04-30T09:08:40.231Z,997.20
2019-04-30T09:09:44.394Z,997.24
2019-04-30T09:10:41.177Z,997.21
2019-04-30T09:11:51.948Z,997.18
2019-04-30T09:12:40.980Z,997.20
2019-04-30T09:13:41.992Z,997.18
2019-04-30T09:14:40.597Z,997.20
2019-04-30T09:15:40.990Z,997.13
2019-04-30T09:16:41.236Z,997.18
2019-04-30T09:17:40.857Z,997.14
2019-04-30T09:18:42.231Z,997.20
2019-04-30T09:19:41.225Z,997.15
2019-04-30T09:20:42.472Z,997.17
2019-04-30T09:21:41.515Z,997.18
2019-04-30T09:22:41.720Z,997.19
2019-04-30T09:23:49.488Z,997.14
2019-04-30T09:24:42.047Z,997.21
2019-04-30T09:25:43.195Z,997.20
2019-04-30T09:26:42.316Z,997.17
2019-04-30T09:27:44.218Z,997.13
2019-04-30T09:28:42.696Z,997.14
2019-04-30T09:29:44.644Z,997.16
2019-04-30T09:30:43.098Z,997.20
2019-04-30T09:31:43.290Z,997.18
2019-04-30T09:32:43.513Z,997.17
2019-04-30T09:33:44.882Z,997.19
2019-04-30T09:34:43.995Z,997.13
2019-04-30T09:35:44.195Z,997.13
2019-04-30T09:36:46.053Z,997.12
2019-04-30T09:37:46.058Z,997.11
2019-04-30T09:38:44.780Z,997.15
2019-04-30T09:39:44.984Z,997.14
2019-04-30T09:40:45.227Z,997.14
2019-04-30T09:41:45.445Z,997.14
2019-04-30T09:42:45.641Z,997.13
2019-04-30T09:43:45.870Z,997.18
2019-04-30T09:44:46.059Z,997.15
2019-04-30T09:45:46.348Z,997.18
2019-04-30T09:46:46.429Z,997.21
2019-04-30T09:47:46.671Z,997.15
2019-04-30T09:48:46.884Z,997.24
2019-04-30T09:49:49.202Z,997.15
2019-04-30T09:50:49.031Z,997.14
2019-04-30T09:51:49.374Z,997.22
2019-04-30T09:52:49.534Z,997.22
2019-04-30T09:53:56.767Z,997.15
2019-04-30T09:54:49.998Z,997.18
2019-04-30T09:55:49.601Z,997.20
2019-04-30T09:56:49.635Z,997.14
2019-04-30T09:57:48.881Z,997.12
2019-04-30T09:58:49.274Z,997.10
2019-04-30T09:59:48.812Z,997.13
2019-04-30T10:00:50.333Z,997.09
2019-04-30T10:01:49.290Z,997.10
2019-04-30T10:02:49.392Z,997.11
2019-04-30T10:03:50.399Z,997.05
2019-04-30T10:04:50.169Z,997.04
2019-04-30T10:05:50.002Z,997.04
2019-04-30T10:06:50.251Z,997.05
2019-04-30T10:07:50.461Z,997.07
2019-04-30T10:08:51.388Z,997.04
2019-04-30T10:09:51.030Z,997.05
2019-04-30T10:10:51.024Z,997.03
2019-04-30T10:11:54.436Z,997.06
2019-04-30T10:12:51.340Z,997.09
2019-04-30T10:13:51.530Z,996.97
2019-04-30T10:14:53.004Z,997.00
2019-04-30T10:15:53.273Z,996.99
2019-04-30T10:16:52.110Z,997.00
2019-04-30T10:17:52.297Z,996.96
2019-04-30T10:18:52.552Z,996.98
2019-04-30T10:19:52.619Z,996.97
2019-04-30T10:20:54.374Z,996.89
2019-04-30T10:21:53.063Z,996.90
2019-04-30T10:22:55.770Z,996.86
2019-04-30T10:23:53.329Z,996.83
2019-04-30T10:24:54.999Z,996.85
2019-04-30T10:25:53.656Z,996.83
2019-04-30T10:26:55.310Z,996.82
2019-04-30T10:27:54.074Z,996.80
2019-04-30T10:28:56.415Z,996.83
2019-04-30T10:29:54.477Z,996.79
2019-04-30T10:30:56.927Z,996.84
2019-04-30T10:31:54.824Z,996.80
2019-04-30T10:32:55.593Z,996.78
2019-04-30T10:33:56.364Z,996.83
2019-04-30T10:34:56.307Z,996.85
2019-04-30T10:35:59.437Z,996.85
2019-04-30T10:36:59.590Z,996.86
2019-04-30T10:37:59.567Z,996.86
2019-04-30T10:38:57.047Z,996.85
2019-04-30T10:39:59.621Z,996.84
2019-04-30T10:40:58.572Z,996.82
2019-04-30T10:41:57.652Z,996.87
2019-04-30T10:42:58.674Z,996.83
2019-04-30T10:43:59.134Z,996.77
2019-04-30T10:45:00.274Z,996.77
2019-04-30T10:45:58.944Z,996.83
2019-04-30T10:46:59.317Z,996.75
2019-04-30T10:47:59.231Z,996.79
2019-04-30T10:48:59.997Z,996.80
2019-04-30T10:49:58.847Z,996.79
2019-04-30T10:50:59.318Z,996.73
2019-04-30T10:52:01.179Z,996.69
2019-04-30T10:53:00.466Z,996.74
2019-04-30T10:54:02.157Z,996.72
2019-04-30T10:55:04.434Z,996.73
2019-04-30T10:56:01.220Z,996.72
2019-04-30T10:56:59.328Z,996.72
2019-04-30T10:58:02.754Z,996.73
2019-04-30T10:58:59.793Z,996.74
2019-04-30T11:00:02.920Z,996.65
2019-04-30T11:01:01.974Z,996.68
2019-04-30T11:02:03.022Z,996.72
2019-04-30T11:03:01.006Z,996.70
2019-04-30T11:04:00.569Z,996.67
2019-04-30T11:05:03.990Z,996.67
2019-04-30T11:06:03.291Z,996.66
2019-04-30T11:07:01.031Z,996.63
2019-04-30T11:08:01.202Z,996.58
2019-04-30T11:09:02.956Z,996.57
2019-04-30T11:10:01.561Z,996.59
2019-04-30T11:11:01.667Z,996.62
2019-04-30T11:12:03.114Z,996.60
2019-04-30T11:13:02.102Z,996.59
2019-04-30T11:14:02.309Z,996.57
2019-04-30T11:15:02.573Z,996.60
2019-04-30T11:16:12.665Z,996.58
2019-04-30T11:17:02.954Z,996.55
2019-04-30T11:18:03.139Z,996.59
2019-04-30T11:19:03.217Z,996.54
2019-04-30T11:20:03.444Z,996.49
2019-04-30T11:21:03.695Z,996.53
2019-04-30T11:22:03.894Z,996.48
2019-04-30T11:23:13.782Z,996.46
2019-04-30T11:24:03.995Z,996.45
2019-04-30T11:25:04.343Z,996.42
2019-04-30T11:26:04.868Z,996.42
2019-04-30T11:27:06.703Z,996.46
2019-04-30T11:28:05.390Z,996.41
2019-04-30T11:29:04.970Z,996.39
2019-04-30T11:30:17.722Z,996.35
2019-04-30T11:31:05.430Z,996.38
2019-04-30T11:32:05.712Z,996.44
2019-04-30T11:33:05.998Z,996.40
2019-04-30T11:34:05.875Z,996.36
2019-04-30T11:35:06.118Z,996.32
2019-04-30T11:36:06.230Z,996.28
2019-04-30T11:37:06.361Z,996.29
2019-04-30T11:38:06.522Z,996.30
2019-04-30T11:39:08.538Z,996.25
2019-04-30T11:40:06.827Z,996.23
2019-04-30T11:41:08.682Z,996.22
2019-04-30T11:42:07.226Z,996.22
2019-04-30T11:43:07.433Z,996.20
2019-04-30T11:44:09.239Z,996.24
2019-04-30T11:45:08.563Z,996.24
2019-04-30T11:46:08.653Z,996.23
2019-04-30T11:47:09.513Z,996.20
2019-04-30T11:48:09.085Z,996.17
2019-04-30T11:49:09.696Z,996.15
2019-04-30T11:50:08.552Z,996.14
2019-04-30T11:51:09.441Z,996.14
2019-04-30T11:52:08.918Z,996.15
2019-04-30T11:53:24.504Z,996.05
2019-04-30T11:54:09.079Z,996.05
2019-04-30T11:55:10.222Z,996.02
2019-04-30T11:56:09.448Z,995.97
2019-04-30T11:57:09.720Z,995.90
2019-04-30T11:58:21.045Z,995.96
2019-04-30T11:59:09.933Z,995.96
2019-04-30T12:00:10.801Z,995.88
2019-04-30T12:01:10.265Z,995.88
2019-04-30T12:02:10.466Z,995.92
2019-04-30T12:03:10.586Z,995.85
2019-04-30T12:04:10.696Z,995.79
2019-04-30T12:05:11.009Z,995.77
2019-04-30T12:06:11.164Z,995.76
2019-04-30T12:07:13.012Z,995.75
2019-04-30T12:08:12.327Z,995.74
2019-04-30T12:09:14.051Z,995.75
2019-04-30T12:10:11.661Z,995.72
2019-04-30T12:11:11.888Z,995.76
2019-04-30T12:12:12.037Z,995.72
2019-04-30T12:13:12.289Z,995.73
2019-04-30T12:14:12.391Z,995.69
2019-04-30T12:15:12.421Z,995.74
2019-04-30T12:16:12.524Z,995.72
2019-04-30T12:17:12.710Z,995.65
2019-04-30T12:18:12.846Z,995.71
2019-04-30T12:19:12.942Z,995.69
2019-04-30T12:20:13.054Z,995.66
2019-04-30T12:21:13.299Z,995.63
2019-04-30T12:22:13.397Z,995.67
2019-04-30T12:23:13.529Z,995.62
2019-04-30T12:24:13.601Z,995.59
2019-04-30T12:25:13.844Z,995.63
2019-04-30T12:26:13.965Z,995.62
2019-04-30T12:27:14.162Z,995.64
2019-04-30T12:28:14.415Z,995.63
2019-04-30T12:29:14.535Z,995.55
2019-04-30T12:30:14.904Z,995.52
2019-04-30T12:31:14.928Z,995.58
2019-04-30T12:32:15.304Z,995.53